sensor_id;sensor_type;location;lat;lon;timestamp;P1;durP1;ratioP1;P2;durP2;ratioP2
71916;SDS011;59793;46.506;6.674;2023-02-28T00:02:24;11.60;;;5.10;;
71916;SDS011;59793;46.506;6.674;2023-02-28T00:04:49;7.43;;;5.38;;
71916;SDS011;59793;46.506;6.674;2023-02-28T00:07:18;10.20;;;5.28;;
71916;SDS011;59793;46.506;6.674;2023-02-28T00:09:44;7.77;;;5.30;;
71916;SDS011;59793;46.506;6.674;2023-02-28T00:12:09;7.50;;;5.88;;
71916;SDS011;59793;46.506;6.674;2023-02-28T00:14:40;9.07;;;5.32;;
71916;SDS011;59793;46.506;6.674;2023-02-28T00:17:05;7.85;;;5.93;;
71916;SDS011;59793;46.506;6.674;2023-02-28T00:19:30;9.95;;;5.70;;
71916;SDS011;59793;46.506;6.674;2023-02-28T00:21:56;10.02;;;5.57;;
71916;SDS011;59793;46.506;6.674;2023-02-28T00:24:21;8.43;;;5.63;;
71916;SDS011;59793;46.506;6.674;2023-02-28T00:26:46;7.57;;;6.30;;
71916;SDS011;59793;46.506;6.674;2023-02-28T00:29:12;6.88;;;5.47;;
71916;SDS011;59793;46.506;6.674;2023-02-28T00:31:37;9.32;;;5.38;;
71916;SDS011;59793;46.506;6.674;2023-02-28T00:34:02;7.75;;;5.60;;
71916;SDS011;59793;46.506;6.674;2023-02-28T00:36:28;7.03;;;5.05;;
71916;SDS011;59793;46.506;6.674;2023-02-28T00:38:53;8.63;;;5.60;;
71916;SDS011;59793;46.506;6.674;2023-02-28T00:41:19;7.10;;;5.25;;
71916;SDS011;59793;46.506;6.674;2023-02-28T00:43:44;9.13;;;6.25;;
71916;SDS011;59793;46.506;6.674;2023-02-28T00:46:09;9.07;;;5.63;;
71916;SDS011;59793;46.506;6.674;2023-02-28T00:48:35;7.35;;;5.18;;
71916;SDS011;59793;46.506;6.674;2023-02-28T00:51:00;7.90;;;5.80;;
71916;SDS011;59793;46.506;6.674;2023-02-28T00:53:27;8.45;;;5.32;;
71916;SDS011;59793;46.506;6.674;2023-02-28T00:55:52;7.45;;;5.63;;
71916;SDS011;59793;46.506;6.674;2023-02-28T00:58:18;8.65;;;5.82;;
71916;SDS011;59793;46.506;6.674;2023-02-28T01:00:43;7.05;;;5.72;;
71916;SDS011;59793;46.506;6.674;2023-02-28T01:03:13;6.80;;;5.47;;
71916;SDS011;59793;46.506;6.674;2023-02-28T01:05:39;6.00;;;4.38;;
71916;SDS011;59793;46.506;6.674;2023-02-28T01:08:06;6.85;;;4.55;;
71916;SDS011;59793;46.506;6.674;2023-02-28T01:10:31;7.00;;;4.95;;
71916;SDS011;59793;46.506;6.674;2023-02-28T01:12:57;8.52;;;5.57;;
71916;SDS011;59793;46.506;6.674;2023-02-28T01:15:23;7.57;;;5.97;;
71916;SDS011;59793;46.506;6.674;2023-02-28T01:17:49;9.15;;;5.85;;
71916;SDS011;59793;46.506;6.674;2023-02-28T01:20:14;7.18;;;5.63;;
71916;SDS011;59793;46.506;6.674;2023-02-28T01:22:39;8.75;;;6.07;;
71916;SDS011;59793;46.506;6.674;2023-02-28T01:25:05;7.20;;;5.70;;
71916;SDS011;59793;46.506;6.674;2023-02-28T01:27:31;11.30;;;6.10;;
71916;SDS011;59793;46.506;6.674;2023-02-28T01:29:56;8.13;;;5.65;;
71916;SDS011;59793;46.506;6.674;2023-02-28T01:32:21;10.55;;;5.70;;
71916;SDS011;59793;46.506;6.674;2023-02-28T01:34:47;7.53;;;5.63;;
71916;SDS011;59793;46.506;6.674;2023-02-28T01:37:12;6.82;;;5.43;;
71916;SDS011;59793;46.506;6.674;2023-02-28T01:39:38;8.98;;;5.60;;
71916;SDS011;59793;46.506;6.674;2023-02-28T01:42:03;8.55;;;6.30;;
71916;SDS011;59793;46.506;6.674;2023-02-28T01:47:38;8.40;;;6.03;;
71916;SDS011;59793;46.506;6.674;2023-02-28T01:50:09;7.65;;;5.53;;
71916;SDS011;59793;46.506;6.674;2023-02-28T01:52:39;10.05;;;6.43;;
71916;SDS011;59793;46.506;6.674;2023-02-28T01:55:06;6.97;;;5.33;;
71916;SDS011;59793;46.506;6.674;2023-02-28T01:57:38;8.15;;;5.55;;
71916;SDS011;59793;46.506;6.674;2023-02-28T02:00:08;8.43;;;5.50;;
71916;SDS011;59793;46.506;6.674;2023-02-28T02:02:39;7.03;;;5.25;;
71916;SDS011;59793;46.506;6.674;2023-02-28T02:05:19;7.75;;;6.00;;
71916;SDS011;59793;46.506;6.674;2023-02-28T02:07:47;10.88;;;6.10;;
71916;SDS011;59793;46.506;6.674;2023-02-28T02:10:17;10.57;;;5.80;;
71916;SDS011;59793;46.506;6.674;2023-02-28T02:20:52;7.28;;;6.15;;
71916;SDS011;59793;46.506;6.674;2023-02-28T02:29:51;8.52;;;6.20;;
71916;SDS011;59793;46.506;6.674;2023-02-28T02:35:31;8.65;;;5.43;;
71916;SDS011;59793;46.506;6.674;2023-02-28T02:38:08;8.52;;;5.63;;
71916;SDS011;59793;46.506;6.674;2023-02-28T02:40:43;10.10;;;6.38;;
71916;SDS011;59793;46.506;6.674;2023-02-28T02:46:23;8.20;;;6.50;;
71916;SDS011;59793;46.506;6.674;2023-02-28T02:48:54;7.20;;;5.68;;
71916;SDS011;59793;46.506;6.674;2023-02-28T02:51:23;8.05;;;6.40;;
71916;SDS011;59793;46.506;6.674;2023-02-28T02:54:01;7.55;;;6.07;;
71916;SDS011;59793;46.506;6.674;2023-02-28T02:56:31;9.60;;;6.40;;
71916;SDS011;59793;46.506;6.674;2023-02-28T02:59:00;8.13;;;6.13;;
71916;SDS011;59793;46.506;6.674;2023-02-28T03:01:32;8.13;;;5.78;;
71916;SDS011;59793;46.506;6.674;2023-02-28T03:04:03;8.10;;;5.93;;
71916;SDS011;59793;46.506;6.674;2023-02-28T03:06:32;10.20;;;5.90;;
71916;SDS011;59793;46.506;6.674;2023-02-28T03:08:57;9.48;;;6.40;;
71916;SDS011;59793;46.506;6.674;2023-02-28T03:11:24;8.80;;;6.55;;
71916;SDS011;59793;46.506;6.674;2023-02-28T03:22:14;7.18;;;5.70;;
71916;SDS011;59793;46.506;6.674;2023-02-28T03:24:50;8.63;;;6.00;;
71916;SDS011;59793;46.506;6.674;2023-02-28T03:30:03;8.68;;;6.38;;
71916;SDS011;59793;46.506;6.674;2023-02-28T03:32:42;11.27;;;5.95;;
71916;SDS011;59793;46.506;6.674;2023-02-28T03:35:24;8.38;;;6.78;;
71916;SDS011;59793;46.506;6.674;2023-02-28T03:37:55;9.75;;;6.10;;
71916;SDS011;59793;46.506;6.674;2023-02-28T03:40:30;11.27;;;6.13;;
71916;SDS011;59793;46.506;6.674;2023-02-28T03:43:01;8.63;;;6.55;;
71916;SDS011;59793;46.506;6.674;2023-02-28T03:45:33;14.30;;;7.28;;
71916;SDS011;59793;46.506;6.674;2023-02-28T03:48:16;9.82;;;7.03;;
71916;SDS011;59793;46.506;6.674;2023-02-28T03:50:47;8.48;;;7.28;;
71916;SDS011;59793;46.506;6.674;2023-02-28T03:53:22;8.43;;;6.18;;
71916;SDS011;59793;46.506;6.674;2023-02-28T03:56:11;10.73;;;7.05;;
71916;SDS011;59793;46.506;6.674;2023-02-28T03:58:47;9.27;;;6.50;;
71916;SDS011;59793;46.506;6.674;2023-02-28T04:01:20;7.95;;;5.80;;
71916;SDS011;59793;46.506;6.674;2023-02-28T04:03:50;7.75;;;6.35;;
71916;SDS011;59793;46.506;6.674;2023-02-28T04:06:16;12.50;;;6.90;;
71916;SDS011;59793;46.506;6.674;2023-02-28T04:08:44;10.43;;;6.78;;
71916;SDS011;59793;46.506;6.674;2023-02-28T04:13:59;8.52;;;5.85;;
71916;SDS011;59793;46.506;6.674;2023-02-28T04:16:25;9.77;;;6.43;;
71916;SDS011;59793;46.506;6.674;2023-02-28T04:18:50;9.57;;;6.78;;
71916;SDS011;59793;46.506;6.674;2023-02-28T04:21:16;7.82;;;6.65;;
71916;SDS011;59793;46.506;6.674;2023-02-28T04:23:45;11.18;;;6.95;;
71916;SDS011;59793;46.506;6.674;2023-02-28T04:26:11;7.72;;;6.15;;
71916;SDS011;59793;46.506;6.674;2023-02-28T04:28:36;8.82;;;6.90;;
71916;SDS011;59793;46.506;6.674;2023-02-28T04:31:03;9.40;;;6.93;;
71916;SDS011;59793;46.506;6.674;2023-02-28T04:33:30;8.93;;;6.78;;
71916;SDS011;59793;46.506;6.674;2023-02-28T04:36:01;10.68;;;6.50;;
71916;SDS011;59793;46.506;6.674;2023-02-28T04:38:28;12.85;;;6.80;;
71916;SDS011;59793;46.506;6.674;2023-02-28T04:40:59;7.85;;;6.68;;
71916;SDS011;59793;46.506;6.674;2023-02-28T04:43:28;7.23;;;5.03;;
71916;SDS011;59793;46.506;6.674;2023-02-28T04:45:55;8.00;;;6.18;;
71916;SDS011;59793;46.506;6.674;2023-02-28T04:48:25;9.27;;;6.13;;
71916;SDS011;59793;46.506;6.674;2023-02-28T04:50:52;10.30;;;6.85;;
71916;SDS011;59793;46.506;6.674;2023-02-28T04:53:18;9.32;;;6.25;;
71916;SDS011;59793;46.506;6.674;2023-02-28T04:55:44;12.55;;;6.82;;
71916;SDS011;59793;46.506;6.674;2023-02-28T04:58:10;9.05;;;6.95;;
71916;SDS011;59793;46.506;6.674;2023-02-28T05:00:35;8.43;;;6.65;;
71916;SDS011;59793;46.506;6.674;2023-02-28T05:03:00;10.60;;;6.78;;
71916;SDS011;59793;46.506;6.674;2023-02-28T05:05:26;8.93;;;6.75;;
71916;SDS011;59793;46.506;6.674;2023-02-28T05:07:51;10.43;;;6.57;;
71916;SDS011;59793;46.506;6.674;2023-02-28T05:10:18;10.60;;;6.43;;
71916;SDS011;59793;46.506;6.674;2023-02-28T05:12:44;8.35;;;6.18;;
71916;SDS011;59793;46.506;6.674;2023-02-28T05:15:12;9.85;;;6.63;;
71916;SDS011;59793;46.506;6.674;2023-02-28T05:17:38;11.07;;;7.28;;
71916;SDS011;59793;46.506;6.674;2023-02-28T05:20:04;11.38;;;6.43;;
71916;SDS011;59793;46.506;6.674;2023-02-28T05:22:30;8.45;;;6.38;;
71916;SDS011;59793;46.506;6.674;2023-02-28T05:24:55;10.25;;;7.57;;
71916;SDS011;59793;46.506;6.674;2023-02-28T05:27:21;9.95;;;6.57;;
71916;SDS011;59793;46.506;6.674;2023-02-28T05:29:46;9.88;;;7.22;;
71916;SDS011;59793;46.506;6.674;2023-02-28T05:32:12;9.70;;;6.57;;
71916;SDS011;59793;46.506;6.674;2023-02-28T05:34:38;8.70;;;6.57;;
71916;SDS011;59793;46.506;6.674;2023-02-28T05:37:05;8.07;;;5.50;;
71916;SDS011;59793;46.506;6.674;2023-02-28T05:39:32;8.90;;;6.28;;
71916;SDS011;59793;46.506;6.674;2023-02-28T05:41:58;7.30;;;5.33;;
71916;SDS011;59793;46.506;6.674;2023-02-28T05:44:23;8.73;;;7.10;;
71916;SDS011;59793;46.506;6.674;2023-02-28T05:46:49;8.85;;;6.97;;
71916;SDS011;59793;46.506;6.674;2023-02-28T05:49:15;9.05;;;7.07;;
71916;SDS011;59793;46.506;6.674;2023-02-28T05:51:40;7.95;;;6.30;;
71916;SDS011;59793;46.506;6.674;2023-02-28T05:54:06;8.88;;;7.28;;
71916;SDS011;59793;46.506;6.674;2023-02-28T05:56:31;9.25;;;6.63;;
71916;SDS011;59793;46.506;6.674;2023-02-28T05:58:59;9.52;;;7.07;;
71916;SDS011;59793;46.506;6.674;2023-02-28T06:01:32;8.73;;;6.85;;
71916;SDS011;59793;46.506;6.674;2023-02-28T06:04:13;9.40;;;7.22;;
71916;SDS011;59793;46.506;6.674;2023-02-28T06:06:42;8.93;;;7.38;;
71916;SDS011;59793;46.506;6.674;2023-02-28T06:11:35;9.38;;;7.00;;
71916;SDS011;59793;46.506;6.674;2023-02-28T06:14:00;9.32;;;7.55;;
71916;SDS011;59793;46.506;6.674;2023-02-28T06:16:27;11.40;;;7.60;;
71916;SDS011;59793;46.506;6.674;2023-02-28T06:18:54;10.93;;;7.25;;
71916;SDS011;59793;46.506;6.674;2023-02-28T06:21:22;10.63;;;7.85;;
71916;SDS011;59793;46.506;6.674;2023-02-28T06:23:48;8.85;;;6.60;;
71916;SDS011;59793;46.506;6.674;2023-02-28T06:26:14;10.68;;;7.18;;
71916;SDS011;59793;46.506;6.674;2023-02-28T06:28:40;8.63;;;7.03;;
71916;SDS011;59793;46.506;6.674;2023-02-28T06:31:09;10.02;;;6.95;;
71916;SDS011;59793;46.506;6.674;2023-02-28T06:33:36;12.25;;;7.25;;
71916;SDS011;59793;46.506;6.674;2023-02-28T06:36:03;7.30;;;6.07;;
71916;SDS011;59793;46.506;6.674;2023-02-28T06:38:30;10.50;;;7.53;;
71916;SDS011;59793;46.506;6.674;2023-02-28T06:40:56;11.32;;;7.70;;
71916;SDS011;59793;46.506;6.674;2023-02-28T06:43:23;10.10;;;7.18;;
71916;SDS011;59793;46.506;6.674;2023-02-28T06:45:49;8.13;;;5.22;;
71916;SDS011;59793;46.506;6.674;2023-02-28T06:48:15;10.93;;;7.40;;
71916;SDS011;59793;46.506;6.674;2023-02-28T06:50:41;9.75;;;6.93;;
71916;SDS011;59793;46.506;6.674;2023-02-28T06:53:06;10.30;;;7.32;;
71916;SDS011;59793;46.506;6.674;2023-02-28T06:55:32;11.65;;;7.78;;
71916;SDS011;59793;46.506;6.674;2023-02-28T06:57:57;10.65;;;7.53;;
71916;SDS011;59793;46.506;6.674;2023-02-28T07:00:23;18.92;;;7.97;;
71916;SDS011;59793;46.506;6.674;2023-02-28T07:02:49;13.43;;;7.05;;
71916;SDS011;59793;46.506;6.674;2023-02-28T07:05:15;11.48;;;7.28;;
71916;SDS011;59793;46.506;6.674;2023-02-28T07:07:40;8.90;;;7.78;;
71916;SDS011;59793;46.506;6.674;2023-02-28T07:10:09;13.32;;;8.27;;
71916;SDS011;59793;46.506;6.674;2023-02-28T07:12:39;10.57;;;7.57;;
71916;SDS011;59793;46.506;6.674;2023-02-28T07:15:05;9.82;;;7.60;;
71916;SDS011;59793;46.506;6.674;2023-02-28T07:17:31;10.10;;;7.38;;
71916;SDS011;59793;46.506;6.674;2023-02-28T07:19:56;9.73;;;7.85;;
71916;SDS011;59793;46.506;6.674;2023-02-28T07:22:22;11.43;;;7.93;;
71916;SDS011;59793;46.506;6.674;2023-02-28T07:24:47;9.15;;;7.38;;
71916;SDS011;59793;46.506;6.674;2023-02-28T07:27:13;9.98;;;7.68;;
71916;SDS011;59793;46.506;6.674;2023-02-28T07:29:48;9.10;;;7.28;;
71916;SDS011;59793;46.506;6.674;2023-02-28T07:32:17;13.77;;;8.90;;
71916;SDS011;59793;46.506;6.674;2023-02-28T07:34:43;8.05;;;6.90;;
71916;SDS011;59793;46.506;6.674;2023-02-28T07:37:09;11.48;;;7.82;;
71916;SDS011;59793;46.506;6.674;2023-02-28T07:39:34;11.27;;;8.55;;
71916;SDS011;59793;46.506;6.674;2023-02-28T07:41:59;13.02;;;8.50;;
71916;SDS011;59793;46.506;6.674;2023-02-28T07:44:26;10.43;;;8.23;;
71916;SDS011;59793;46.506;6.674;2023-02-28T07:46:52;12.90;;;8.63;;
71916;SDS011;59793;46.506;6.674;2023-02-28T07:49:18;16.02;;;8.10;;
71916;SDS011;59793;46.506;6.674;2023-02-28T07:51:43;12.48;;;8.57;;
71916;SDS011;59793;46.506;6.674;2023-02-28T07:54:09;13.18;;;8.50;;
71916;SDS011;59793;46.506;6.674;2023-02-28T07:56:34;11.23;;;8.05;;
71916;SDS011;59793;46.506;6.674;2023-02-28T07:59:00;12.20;;;8.15;;
71916;SDS011;59793;46.506;6.674;2023-02-28T08:01:26;7.78;;;6.05;;
71916;SDS011;59793;46.506;6.674;2023-02-28T08:03:52;16.15;;;9.40;;
71916;SDS011;59793;46.506;6.674;2023-02-28T08:06:19;10.32;;;7.95;;
71916;SDS011;59793;46.506;6.674;2023-02-28T08:08:47;14.57;;;8.65;;
71916;SDS011;59793;46.506;6.674;2023-02-28T08:11:14;15.30;;;9.05;;
71916;SDS011;59793;46.506;6.674;2023-02-28T08:13:41;11.43;;;7.25;;
71916;SDS011;59793;46.506;6.674;2023-02-28T08:16:08;17.90;;;9.50;;
71916;SDS011;59793;46.506;6.674;2023-02-28T08:18:34;17.42;;;9.90;;
71916;SDS011;59793;46.506;6.674;2023-02-28T08:21:05;14.70;;;8.88;;
71916;SDS011;59793;46.506;6.674;2023-02-28T08:23:31;16.55;;;8.95;;
71916;SDS011;59793;46.506;6.674;2023-02-28T08:28:24;8.35;;;7.28;;
71916;SDS011;59793;46.506;6.674;2023-02-28T08:30:49;26.90;;;8.90;;
71916;SDS011;59793;46.506;6.674;2023-02-28T08:33:15;9.48;;;7.15;;
71916;SDS011;59793;46.506;6.674;2023-02-28T08:35:40;9.10;;;7.75;;
71916;SDS011;59793;46.506;6.674;2023-02-28T08:38:05;10.25;;;7.57;;
71916;SDS011;59793;46.506;6.674;2023-02-28T08:40:31;11.85;;;8.40;;
71916;SDS011;59793;46.506;6.674;2023-02-28T08:42:56;9.93;;;8.15;;
71916;SDS011;59793;46.506;6.674;2023-02-28T08:45:21;12.45;;;8.52;;
71916;SDS011;59793;46.506;6.674;2023-02-28T08:47:47;12.68;;;8.45;;
71916;SDS011;59793;46.506;6.674;2023-02-28T08:50:12;9.95;;;8.45;;
71916;SDS011;59793;46.506;6.674;2023-02-28T08:55:07;9.98;;;7.43;;
71916;SDS011;59793;46.506;6.674;2023-02-28T08:57:34;11.38;;;9.23;;
71916;SDS011;59793;46.506;6.674;2023-02-28T09:00:00;10.73;;;9.27;;
71916;SDS011;59793;46.506;6.674;2023-02-28T09:02:29;11.50;;;9.05;;
71916;SDS011;59793;46.506;6.674;2023-02-28T09:04:57;12.18;;;9.13;;
71916;SDS011;59793;46.506;6.674;2023-02-28T09:07:23;12.82;;;8.55;;
71916;SDS011;59793;46.506;6.674;2023-02-28T09:09:49;12.77;;;8.50;;
71916;SDS011;59793;46.506;6.674;2023-02-28T09:12:24;11.50;;;8.40;;
71916;SDS011;59793;46.506;6.674;2023-02-28T09:14:50;10.55;;;7.63;;
71916;SDS011;59793;46.506;6.674;2023-02-28T09:17:16;9.23;;;6.28;;
71916;SDS011;59793;46.506;6.674;2023-02-28T09:19:42;11.05;;;7.28;;
71916;SDS011;59793;46.506;6.674;2023-02-28T09:22:08;11.73;;;7.95;;
71916;SDS011;59793;46.506;6.674;2023-02-28T09:24:35;10.65;;;8.60;;
71916;SDS011;59793;46.506;6.674;2023-02-28T09:27:01;8.65;;;6.55;;
71916;SDS011;59793;46.506;6.674;2023-02-28T09:29:26;12.05;;;8.27;;
71916;SDS011;59793;46.506;6.674;2023-02-28T09:31:51;13.40;;;8.65;;
71916;SDS011;59793;46.506;6.674;2023-02-28T09:34:17;10.60;;;8.25;;
71916;SDS011;59793;46.506;6.674;2023-02-28T09:36:42;10.23;;;7.72;;
71916;SDS011;59793;46.506;6.674;2023-02-28T09:39:08;13.38;;;8.85;;
71916;SDS011;59793;46.506;6.674;2023-02-28T09:41:52;14.80;;;8.90;;
71916;SDS011;59793;46.506;6.674;2023-02-28T09:44:27;10.15;;;8.50;;
71916;SDS011;59793;46.506;6.674;2023-02-28T09:46:57;10.05;;;7.80;;
71916;SDS011;59793;46.506;6.674;2023-02-28T09:49:31;10.43;;;8.55;;
71916;SDS011;59793;46.506;6.674;2023-02-28T09:52:07;10.93;;;8.15;;
71916;SDS011;59793;46.506;6.674;2023-02-28T09:54:36;11.57;;;8.38;;
71916;SDS011;59793;46.506;6.674;2023-02-28T09:57:21;12.82;;;7.85;;
71916;SDS011;59793;46.506;6.674;2023-02-28T10:00:13;12.45;;;9.25;;
71916;SDS011;59793;46.506;6.674;2023-02-28T10:02:54;12.80;;;8.77;;
71916;SDS011;59793;46.506;6.674;2023-02-28T10:05:31;14.57;;;8.95;;
71916;SDS011;59793;46.506;6.674;2023-02-28T10:10:51;9.05;;;7.32;;
71916;SDS011;59793;46.506;6.674;2023-02-28T10:13:27;12.43;;;8.52;;
71916;SDS011;59793;46.506;6.674;2023-02-28T10:18:49;13.07;;;8.48;;
71916;SDS011;59793;46.506;6.674;2023-02-28T10:21:34;12.45;;;8.02;;
71916;SDS011;59793;46.506;6.674;2023-02-28T10:24:49;14.98;;;8.60;;
71916;SDS011;59793;46.506;6.674;2023-02-28T10:26:56;10.02;;;7.35;;
71916;SDS011;59793;46.506;6.674;2023-02-28T10:29:26;13.52;;;8.43;;
71916;SDS011;59793;46.506;6.674;2023-02-28T10:31:53;13.43;;;8.18;;
71916;SDS011;59793;46.506;6.674;2023-02-28T10:34:18;12.52;;;9.55;;
71916;SDS011;59793;46.506;6.674;2023-02-28T10:36:43;10.35;;;9.10;;
71916;SDS011;59793;46.506;6.674;2023-02-28T10:42:26;13.90;;;9.52;;
71916;SDS011;59793;46.506;6.674;2023-02-28T10:47:33;12.18;;;9.45;;
71916;SDS011;59793;46.506;6.674;2023-02-28T10:50:01;11.80;;;8.65;;
71916;SDS011;59793;46.506;6.674;2023-02-28T10:52:36;10.55;;;8.63;;
71916;SDS011;59793;46.506;6.674;2023-02-28T10:55:21;13.88;;;8.98;;
71916;SDS011;59793;46.506;6.674;2023-02-28T10:57:48;11.52;;;9.30;;
71916;SDS011;59793;46.506;6.674;2023-02-28T11:00:16;12.40;;;9.38;;
71916;SDS011;59793;46.506;6.674;2023-02-28T11:02:47;11.50;;;8.60;;
71916;SDS011;59793;46.506;6.674;2023-02-28T11:08:03;14.85;;;9.68;;
71916;SDS011;59793;46.506;6.674;2023-02-28T11:10:36;11.43;;;9.25;;
71916;SDS011;59793;46.506;6.674;2023-02-28T11:13:01;10.43;;;8.43;;
71916;SDS011;59793;46.506;6.674;2023-02-28T11:15:29;12.02;;;9.45;;
71916;SDS011;59793;46.506;6.674;2023-02-28T11:17:58;13.82;;;9.68;;
71916;SDS011;59793;46.506;6.674;2023-02-28T11:20:28;12.82;;;9.80;;
71916;SDS011;59793;46.506;6.674;2023-02-28T11:22:57;13.85;;;9.52;;
71916;SDS011;59793;46.506;6.674;2023-02-28T11:25:35;11.48;;;8.88;;
71916;SDS011;59793;46.506;6.674;2023-02-28T11:28:22;14.43;;;8.85;;
71916;SDS011;59793;46.506;6.674;2023-02-28T11:36:21;11.35;;;9.27;;
71916;SDS011;59793;46.506;6.674;2023-02-28T11:38:55;13.00;;;9.40;;
71916;SDS011;59793;46.506;6.674;2023-02-28T11:52:20;11.15;;;9.00;;
71916;SDS011;59793;46.506;6.674;2023-02-28T11:55:04;9.68;;;8.32;;
71916;SDS011;59793;46.506;6.674;2023-02-28T11:57:52;13.38;;;9.50;;
71916;SDS011;59793;46.506;6.674;2023-02-28T12:11:05;12.52;;;9.57;;
71916;SDS011;59793;46.506;6.674;2023-02-28T12:19:04;12.93;;;9.70;;
71916;SDS011;59793;46.506;6.674;2023-02-28T12:27:02;11.23;;;9.27;;
71916;SDS011;59793;46.506;6.674;2023-02-28T12:29:33;12.30;;;10.40;;
71916;SDS011;59793;46.506;6.674;2023-02-28T12:32:13;11.88;;;9.38;;
71916;SDS011;59793;46.506;6.674;2023-02-28T12:34:52;10.20;;;8.80;;
71916;SDS011;59793;46.506;6.674;2023-02-28T12:37:32;15.60;;;10.60;;
71916;SDS011;59793;46.506;6.674;2023-02-28T12:40:13;11.70;;;10.40;;
71916;SDS011;59793;46.506;6.674;2023-02-28T12:42:43;15.93;;;10.32;;
71916;SDS011;59793;46.506;6.674;2023-02-28T12:45:19;12.07;;;10.23;;
71916;SDS011;59793;46.506;6.674;2023-02-28T12:47:49;15.68;;;11.80;;
71916;SDS011;59793;46.506;6.674;2023-02-28T12:50:18;14.55;;;10.25;;
71916;SDS011;59793;46.506;6.674;2023-02-28T12:53:01;13.68;;;10.70;;
71916;SDS011;59793;46.506;6.674;2023-02-28T12:56:33;14.80;;;11.02;;
71916;SDS011;59793;46.506;6.674;2023-02-28T12:58:43;12.93;;;9.93;;
71916;SDS011;59793;46.506;6.674;2023-02-28T13:04:18;12.23;;;9.95;;
71916;SDS011;59793;46.506;6.674;2023-02-28T13:09:38;14.18;;;11.82;;
71916;SDS011;59793;46.506;6.674;2023-02-28T13:12:14;13.90;;;9.90;;
71916;SDS011;59793;46.506;6.674;2023-02-28T13:14:41;14.02;;;10.70;;
71916;SDS011;59793;46.506;6.674;2023-02-28T13:19:58;13.00;;;10.13;;
71916;SDS011;59793;46.506;6.674;2023-02-28T13:26:06;14.55;;;9.77;;
71916;SDS011;59793;46.506;6.674;2023-02-28T13:28:10;12.57;;;9.40;;
71916;SDS011;59793;46.506;6.674;2023-02-28T13:33:24;17.08;;;9.90;;
71916;SDS011;59793;46.506;6.674;2023-02-28T13:38:42;13.57;;;10.70;;
71916;SDS011;59793;46.506;6.674;2023-02-28T13:44:04;12.40;;;10.43;;
71916;SDS011;59793;46.506;6.674;2023-02-28T13:46:30;13.55;;;10.00;;
71916;SDS011;59793;46.506;6.674;2023-02-28T13:48:56;13.68;;;9.88;;
71916;SDS011;59793;46.506;6.674;2023-02-28T13:52:07;16.65;;;9.38;;
71916;SDS011;59793;46.506;6.674;2023-02-28T13:57:43;13.18;;;10.38;;
71916;SDS011;59793;46.506;6.674;2023-02-28T14:06:28;13.45;;;10.55;;
71916;SDS011;59793;46.506;6.674;2023-02-28T14:11:26;15.13;;;10.25;;
71916;SDS011;59793;46.506;6.674;2023-02-28T14:14:02;15.18;;;11.43;;
71916;SDS011;59793;46.506;6.674;2023-02-28T14:21:45;11.10;;;9.68;;
71916;SDS011;59793;46.506;6.674;2023-02-28T14:27:50;15.35;;;11.05;;
71916;SDS011;59793;46.506;6.674;2023-02-28T14:30:26;13.13;;;10.82;;
71916;SDS011;59793;46.506;6.674;2023-02-28T14:38:40;12.48;;;10.95;;
71916;SDS011;59793;46.506;6.674;2023-02-28T14:41:14;12.85;;;10.20;;
71916;SDS011;59793;46.506;6.674;2023-02-28T14:43:50;13.95;;;10.63;;
71916;SDS011;59793;46.506;6.674;2023-02-28T14:46:17;14.18;;;11.48;;
71916;SDS011;59793;46.506;6.674;2023-02-28T14:51:10;13.23;;;9.65;;
71916;SDS011;59793;46.506;6.674;2023-02-28T14:53:37;13.18;;;9.45;;
71916;SDS011;59793;46.506;6.674;2023-02-28T14:56:02;11.27;;;10.07;;
71916;SDS011;59793;46.506;6.674;2023-02-28T14:58:29;10.98;;;9.35;;
71916;SDS011;59793;46.506;6.674;2023-02-28T15:00:59;13.63;;;10.40;;
71916;SDS011;59793;46.506;6.674;2023-02-28T15:03:33;10.10;;;8.95;;
71916;SDS011;59793;46.506;6.674;2023-02-28T15:06:04;14.77;;;11.00;;
71916;SDS011;59793;46.506;6.674;2023-02-28T15:08:32;11.52;;;9.73;;
71916;SDS011;59793;46.506;6.674;2023-02-28T15:11:21;11.68;;;9.43;;
71916;SDS011;59793;46.506;6.674;2023-02-28T15:13:51;11.82;;;9.60;;
71916;SDS011;59793;46.506;6.674;2023-02-28T15:16:20;11.88;;;10.05;;
71916;SDS011;59793;46.506;6.674;2023-02-28T15:21:58;13.10;;;9.68;;
71916;SDS011;59793;46.506;6.674;2023-02-28T15:24:32;14.95;;;10.32;;
71916;SDS011;59793;46.506;6.674;2023-02-28T15:27:15;11.88;;;10.13;;
71916;SDS011;59793;46.506;6.674;2023-02-28T15:29:55;12.48;;;10.13;;
71916;SDS011;59793;46.506;6.674;2023-02-28T15:32:33;13.27;;;11.23;;
71916;SDS011;59793;46.506;6.674;2023-02-28T15:37:56;14.55;;;10.13;;
71916;SDS011;59793;46.506;6.674;2023-02-28T15:40:41;15.07;;;11.27;;
71916;SDS011;59793;46.506;6.674;2023-02-28T15:43:18;13.57;;;10.68;;
71916;SDS011;59793;46.506;6.674;2023-02-28T15:48:27;16.20;;;10.98;;
71916;SDS011;59793;46.506;6.674;2023-02-28T15:51:36;14.43;;;11.30;;
71916;SDS011;59793;46.506;6.674;2023-02-28T15:53:47;16.00;;;10.38;;
71916;SDS011;59793;46.506;6.674;2023-02-28T15:56:27;12.88;;;10.70;;
71916;SDS011;59793;46.506;6.674;2023-02-28T15:58:55;16.80;;;11.20;;
71916;SDS011;59793;46.506;6.674;2023-02-28T16:01:29;12.55;;;9.93;;
71916;SDS011;59793;46.506;6.674;2023-02-28T16:04:04;13.55;;;10.15;;
71916;SDS011;59793;46.506;6.674;2023-02-28T16:09:08;13.27;;;10.30;;
71916;SDS011;59793;46.506;6.674;2023-02-28T16:11:43;12.25;;;10.15;;
71916;SDS011;59793;46.506;6.674;2023-02-28T16:14:15;11.85;;;10.10;;
71916;SDS011;59793;46.506;6.674;2023-02-28T16:16:45;13.20;;;10.45;;
71916;SDS011;59793;46.506;6.674;2023-02-28T16:19:13;13.10;;;10.95;;
71916;SDS011;59793;46.506;6.674;2023-02-28T16:21:39;18.00;;;10.40;;
71916;SDS011;59793;46.506;6.674;2023-02-28T16:24:04;14.82;;;10.27;;
71916;SDS011;59793;46.506;6.674;2023-02-28T16:26:30;14.80;;;10.52;;
71916;SDS011;59793;46.506;6.674;2023-02-28T16:28:59;13.05;;;10.13;;
71916;SDS011;59793;46.506;6.674;2023-02-28T16:31:25;13.07;;;9.80;;
71916;SDS011;59793;46.506;6.674;2023-02-28T16:33:52;14.27;;;10.30;;
71916;SDS011;59793;46.506;6.674;2023-02-28T16:36:19;15.32;;;11.50;;
71916;SDS011;59793;46.506;6.674;2023-02-28T16:38:46;12.88;;;10.60;;
71916;SDS011;59793;46.506;6.674;2023-02-28T16:41:12;15.07;;;10.57;;
71916;SDS011;59793;46.506;6.674;2023-02-28T16:43:44;14.68;;;11.02;;
71916;SDS011;59793;46.506;6.674;2023-02-28T16:46:12;13.63;;;10.90;;
71916;SDS011;59793;46.506;6.674;2023-02-28T16:48:38;16.20;;;11.10;;
71916;SDS011;59793;46.506;6.674;2023-02-28T16:51:05;13.27;;;10.27;;
71916;SDS011;59793;46.506;6.674;2023-02-28T16:53:33;16.05;;;9.95;;
71916;SDS011;59793;46.506;6.674;2023-02-28T16:55:59;13.48;;;10.77;;
71916;SDS011;59793;46.506;6.674;2023-02-28T16:58:27;16.67;;;10.98;;
71916;SDS011;59793;46.506;6.674;2023-02-28T17:00:53;13.60;;;9.88;;
71916;SDS011;59793;46.506;6.674;2023-02-28T17:03:22;12.52;;;10.18;;
71916;SDS011;59793;46.506;6.674;2023-02-28T17:05:50;11.30;;;9.82;;
71916;SDS011;59793;46.506;6.674;2023-02-28T17:08:15;15.75;;;10.15;;
71916;SDS011;59793;46.506;6.674;2023-02-28T17:10:41;13.50;;;10.98;;
71916;SDS011;59793;46.506;6.674;2023-02-28T17:13:06;16.98;;;11.45;;
71916;SDS011;59793;46.506;6.674;2023-02-28T17:15:33;9.68;;;8.07;;
71916;SDS011;59793;46.506;6.674;2023-02-28T17:17:59;15.90;;;10.55;;
71916;SDS011;59793;46.506;6.674;2023-02-28T17:20:25;14.82;;;10.93;;
71916;SDS011;59793;46.506;6.674;2023-02-28T17:22:52;15.90;;;11.38;;
71916;SDS011;59793;46.506;6.674;2023-02-28T17:25:18;13.18;;;10.55;;
71916;SDS011;59793;46.506;6.674;2023-02-28T17:27:44;17.90;;;11.63;;